createdAt,value
2016-12-07T00:00:24.526Z,0
2016-12-07T00:01:33.390Z,0
2016-12-07T00:02:42.237Z,0
2016-12-07T00:03:51.081Z,0
2016-12-07T00:04:59.954Z,0
2016-12-07T00:06:08.810Z,0
2016-12-07T00:07:17.663Z,0
2016-12-07T00:08:26.500Z,0
2016-12-07T00:09:35.354Z,0
2016-12-07T00:10:44.220Z,0
2016-12-07T00:11:53.064Z,0
2016-12-07T00:13:01.920Z,0
2016-12-07T00:14:10.786Z,0
2016-12-07T00:15:19.648Z,0
2016-12-07T00:16:28.502Z,0
2016-12-07T00:17:37.359Z,0
2016-12-07T00:18:46.220Z,0
2016-12-07T00:19:55.056Z,0
2016-12-07T00:21:03.919Z,0
2016-12-07T00:22:12.776Z,0
2016-12-07T00:23:21.645Z,0
2016-12-07T00:24:30.494Z,0
2016-12-07T00:25:39.339Z,0
2016-12-07T00:26:48.209Z,0
2016-12-07T00:27:57.062Z,0
2016-12-07T00:29:05.906Z,0
2016-12-07T00:30:14.770Z,0
2016-12-07T00:31:23.619Z,0
2016-12-07T00:32:32.487Z,0
2016-12-07T00:33:41.350Z,0
2016-12-07T00:34:50.222Z,0
2016-12-07T00:35:59.058Z,0
2016-12-07T00:37:07.916Z,0
2016-12-07T00:38:16.796Z,0
2016-12-07T00:39:25.968Z,0
2016-12-07T00:40:34.820Z,0
2016-12-07T00:41:43.661Z,0
2016-12-07T00:42:52.527Z,0
2016-12-07T00:44:01.394Z,0
2016-12-07T00:45:10.248Z,0
2016-12-07T00:46:19.127Z,0
2016-12-07T00:47:28.005Z,0
2016-12-07T00:48:36.846Z,0
2016-12-07T00:49:45.687Z,0
2016-12-07T00:50:54.565Z,0
2016-12-07T00:52:03.431Z,0
2016-12-07T00:53:12.271Z,0
2016-12-07T00:54:21.139Z,0
2016-12-07T00:55:30.000Z,0
2016-12-07T00:56:38.841Z,0
2016-12-07T00:57:47.708Z,0
2016-12-07T00:58:56.573Z,0
2016-12-07T01:00:05.425Z,0
2016-12-07T01:01:14.273Z,0
2016-12-07T01:02:23.141Z,0
2016-12-07T01:03:31.973Z,0
2016-12-07T01:04:40.821Z,0
2016-12-07T01:05:49.676Z,0
2016-12-07T01:06:58.534Z,0
2016-12-07T01:08:07.399Z,0
2016-12-07T01:09:16.245Z,0
2016-12-07T01:10:25.099Z,0
2016-12-07T01:11:33.974Z,0
2016-12-07T01:12:42.819Z,0
2016-12-07T01:13:51.666Z,0
2016-12-07T01:15:00.524Z,0
2016-12-07T01:16:09.371Z,0
2016-12-07T01:17:18.219Z,0
2016-12-07T01:18:27.097Z,0
2016-12-07T01:19:35.944Z,0
2016-12-07T01:20:44.793Z,0
2016-12-07T01:21:53.644Z,0
2016-12-07T01:23:02.487Z,0
2016-12-07T01:24:11.368Z,0
2016-12-07T01:25:20.225Z,0
2016-12-07T01:26:29.064Z,0
2016-12-07T01:27:37.942Z,0
2016-12-07T01:28:46.786Z,0
2016-12-07T01:29:55.636Z,0
2016-12-07T01:31:04.499Z,0
2016-12-07T01:32:13.370Z,0
2016-12-07T01:33:22.204Z,0
2016-12-07T01:34:31.058Z,0
2016-12-07T01:35:39.903Z,0
2016-12-07T01:36:48.771Z,0
2016-12-07T01:37:57.629Z,0
2016-12-07T01:39:06.459Z,0
2016-12-07T01:40:15.326Z,0
2016-12-07T01:41:24.186Z,0
2016-12-07T01:42:33.013Z,0
2016-12-07T01:43:41.879Z,0
2016-12-07T01:44:50.744Z,0
2016-12-07T01:45:59.902Z,0
2016-12-07T01:47:08.750Z,0
2016-12-07T01:48:17.623Z,0
2016-12-07T01:49:26.454Z,0
2016-12-07T01:50:35.303Z,0
2016-12-07T01:51:44.163Z,0
2016-12-07T01:52:53.013Z,0
2016-12-07T01:54:01.854Z,0
2016-12-07T01:55:10.719Z,0
2016-12-07T01:56:19.596Z,0
2016-12-07T01:57:28.450Z,0
2016-12-07T01:58:37.316Z,0
2016-12-07T01:59:46.173Z,0
2016-12-07T02:00:55.009Z,0
2016-12-07T02:02:03.883Z,0
2016-12-07T02:03:12.743Z,0
2016-12-07T02:04:21.587Z,0
2016-12-07T02:05:30.445Z,0
2016-12-07T02:06:39.292Z,0
2016-12-07T02:07:48.185Z,0
2016-12-07T02:08:57.360Z,0
2016-12-07T02:10:06.208Z,0
2016-12-07T02:11:15.063Z,0
2016-12-07T02:12:23.922Z,0
2016-12-07T02:13:32.771Z,0
2016-12-07T02:14:41.634Z,0
2016-12-07T02:15:50.504Z,0
2016-12-07T02:16:59.341Z,0
2016-12-07T02:18:08.193Z,0
2016-12-07T02:19:17.048Z,0
2016-12-07T02:20:25.904Z,0
2016-12-07T02:21:34.792Z,0
2016-12-07T02:22:43.622Z,0
2016-12-07T02:23:52.476Z,0
2016-12-07T02:25:01.355Z,0
2016-12-07T02:26:10.195Z,0
2016-12-07T02:27:19.046Z,0
2016-12-07T02:28:27.905Z,0
2016-12-07T02:29:36.748Z,0
2016-12-07T02:30:45.594Z,0
2016-12-07T02:31:54.465Z,0
2016-12-07T02:33:03.349Z,0
2016-12-07T02:34:12.197Z,0
2016-12-07T02:35:21.041Z,0
2016-12-07T02:36:29.896Z,0
2016-12-07T02:37:38.756Z,0
2016-12-07T02:38:47.907Z,0
2016-12-07T02:39:56.753Z,0
2016-12-07T02:41:05.619Z,0
2016-12-07T02:42:14.461Z,0
2016-12-07T02:43:23.303Z,0
2016-12-07T02:44:32.172Z,0
2016-12-07T02:45:41.034Z,0
2016-12-07T02:46:49.863Z,0
2016-12-07T02:47:58.728Z,0
2016-12-07T02:49:07.880Z,0
2016-12-07T02:50:16.755Z,0
2016-12-07T02:51:25.623Z,0
2016-12-07T02:52:34.468Z,0
2016-12-07T02:53:43.323Z,0
2016-12-07T02:54:52.170Z,0
2016-12-07T02:56:01.006Z,0
2016-12-07T02:57:09.870Z,0
2016-12-07T02:58:18.727Z,0
2016-12-07T02:59:27.573Z,0
2016-12-07T03:00:36.428Z,0
2016-12-07T03:01:45.301Z,0
2016-12-07T03:02:54.149Z,0
2016-12-07T03:04:03.004Z,0
2016-12-07T03:05:11.838Z,0
2016-12-07T03:06:20.703Z,0
2016-12-07T03:07:29.567Z,0
2016-12-07T03:08:38.436Z,0
2016-12-07T03:09:47.296Z,0
2016-12-07T03:10:56.153Z,0
2016-12-07T03:12:04.984Z,0
2016-12-07T03:13:13.840Z,0
2016-12-07T03:14:22.701Z,0
2016-12-07T03:15:31.542Z,0
2016-12-07T03:16:40.382Z,0
2016-12-07T03:17:49.226Z,0
2016-12-07T03:18:58.081Z,0
2016-12-07T03:20:06.954Z,0
2016-12-07T03:21:15.791Z,0
2016-12-07T03:22:24.645Z,0
2016-12-07T03:23:33.501Z,0
2016-12-07T03:24:42.348Z,0
2016-12-07T03:25:51.234Z,0
2016-12-07T03:27:00.100Z,0
2016-12-07T03:28:08.944Z,0
2016-12-07T03:29:17.786Z,0
2016-12-07T03:30:26.649Z,0
2016-12-07T03:31:35.515Z,0
2016-12-07T03:32:44.377Z,0
2016-12-07T03:33:53.225Z,0
2016-12-07T03:35:02.074Z,0
2016-12-07T03:36:10.958Z,0
2016-12-07T03:37:19.802Z,0
2016-12-07T03:38:28.648Z,0
2016-12-07T03:39:37.514Z,0
2016-12-07T03:40:46.361Z,0
2016-12-07T03:41:55.188Z,0
2016-12-07T03:43:04.048Z,0
2016-12-07T03:44:12.904Z,0
2016-12-07T03:45:21.747Z,0
2016-12-07T03:46:30.604Z,0
2016-12-07T03:47:39.471Z,0
2016-12-07T03:48:48.304Z,0
2016-12-07T03:49:57.156Z,0
2016-12-07T03:51:06.017Z,0
2016-12-07T03:52:14.904Z,0
2016-12-07T03:53:23.747Z,0
2016-12-07T03:54:32.607Z,0
2016-12-07T03:55:41.464Z,0
2016-12-07T03:56:50.298Z,0
2016-12-07T03:57:59.175Z,0
2016-12-07T03:59:08.024Z,0
2016-12-07T04:00:16.872Z,0
2016-12-07T04:01:25.732Z,0
2016-12-07T04:02:34.574Z,0
2016-12-07T04:03:43.447Z,0
2016-12-07T04:04:52.294Z,0
2016-12-07T04:06:01.135Z,0
2016-12-07T04:07:10.035Z,0
2016-12-07T04:08:18.880Z,0
2016-12-07T04:09:27.716Z,0
2016-12-07T04:10:36.604Z,0
2016-12-07T04:11:45.468Z,0
2016-12-07T04:12:54.311Z,0
2016-12-07T04:14:03.176Z,0
2016-12-07T04:15:12.039Z,0
2016-12-07T04:16:20.882Z,0
2016-12-07T04:17:29.740Z,0
2016-12-07T04:18:38.576Z,0
2016-12-07T04:19:47.426Z,0
2016-12-07T04:20:56.278Z,0
2016-12-07T04:22:05.130Z,0
2016-12-07T04:23:13.993Z,0
2016-12-07T04:24:22.858Z,0
2016-12-07T04:25:31.702Z,0
2016-12-07T04:26:40.548Z,0
2016-12-07T04:27:49.408Z,0
2016-12-07T04:28:58.253Z,0
2016-12-07T04:30:07.413Z,0
2016-12-07T04:31:16.599Z,0
2016-12-07T04:32:25.436Z,0
2016-12-07T04:33:34.306Z,0
2016-12-07T04:34:43.146Z,0
2016-12-07T04:35:51.998Z,0
2016-12-07T04:37:00.859Z,0
2016-12-07T04:38:09.704Z,0
2016-12-07T04:39:18.553Z,0
2016-12-07T04:40:27.419Z,0
2016-12-07T04:41:36.277Z,0
2016-12-07T04:42:45.114Z,0
2016-12-07T04:43:53.984Z,0
2016-12-07T04:45:02.869Z,0
2016-12-07T04:46:11.734Z,0
2016-12-07T04:47:20.583Z,0
2016-12-07T04:48:29.412Z,0
2016-12-07T04:49:38.278Z,0
2016-12-07T04:50:47.128Z,0
2016-12-07T04:51:55.961Z,0
2016-12-07T04:53:04.837Z,0
2016-12-07T04:54:13.689Z,0
2016-12-07T04:55:22.520Z,0
2016-12-07T04:56:31.379Z,0
2016-12-07T04:57:40.238Z,0
2016-12-07T04:58:49.086Z,0
2016-12-07T04:59:57.934Z,0
2016-12-07T05:01:06.788Z,0
2016-12-07T05:02:15.659Z,0
2016-12-07T05:03:24.512Z,0
2016-12-07T05:04:33.349Z,0
2016-12-07T05:05:42.207Z,0
2016-12-07T05:06:51.079Z,0
2016-12-07T05:07:59.915Z,0
2016-12-07T05:09:08.772Z,0
2016-12-07T05:10:17.648Z,0
2016-12-07T05:11:26.483Z,0
2016-12-07T05:12:35.335Z,0
2016-12-07T05:13:44.192Z,0
2016-12-07T05:14:53.043Z,0
2016-12-07T05:16:01.913Z,0
2016-12-07T05:17:10.748Z,0
2016-12-07T05:18:19.600Z,0
2016-12-07T05:19:28.464Z,0
2016-12-07T05:20:37.302Z,0
2016-12-07T05:21:46.161Z,0
2016-12-07T05:22:55.025Z,0
2016-12-07T05:24:03.874Z,0
2016-12-07T05:25:12.717Z,0
2016-12-07T05:26:21.630Z,0
2016-12-07T05:27:30.468Z,0
2016-12-07T05:28:39.316Z,0
2016-12-07T05:29:48.183Z,0
2016-12-07T05:30:57.025Z,0
2016-12-07T05:32:05.886Z,0
2016-12-07T05:33:14.734Z,0
2016-12-07T05:34:23.571Z,0
2016-12-07T05:35:32.429Z,0
2016-12-07T05:36:41.283Z,0
2016-12-07T05:37:50.122Z,0
2016-12-07T05:38:58.993Z,0
2016-12-07T05:40:07.855Z,0
2016-12-07T05:41:16.701Z,0
2016-12-07T05:42:25.559Z,4
2016-12-07T05:43:34.421Z,4
2016-12-07T05:44:43.258Z,4
2016-12-07T05:45:52.116Z,4
2016-12-07T05:47:00.991Z,4
2016-12-07T05:48:09.846Z,4
2016-12-07T05:49:18.693Z,0
2016-12-07T05:50:27.558Z,4
2016-12-07T05:51:36.398Z,0
2016-12-07T05:52:45.242Z,0
2016-12-07T05:53:54.118Z,4
2016-12-07T05:55:02.979Z,4
2016-12-07T05:56:11.822Z,4
2016-12-07T05:57:20.676Z,4
2016-12-07T05:58:29.540Z,0
2016-12-07T05:59:38.427Z,4
2016-12-07T06:00:47.270Z,4
2016-12-07T06:01:56.124Z,4
2016-12-07T06:03:05.001Z,4
2016-12-07T06:04:13.861Z,4
2016-12-07T06:05:22.692Z,4
2016-12-07T06:06:31.563Z,4
2016-12-07T06:07:40.425Z,4
2016-12-07T06:08:49.261Z,4
2016-12-07T06:09:58.136Z,0
2016-12-07T06:11:06.990Z,0
2016-12-07T06:12:15.836Z,4
2016-12-07T06:13:24.683Z,0
2016-12-07T06:14:33.543Z,0
2016-12-07T06:15:42.420Z,0
2016-12-07T06:16:51.283Z,0
2016-12-07T06:18:00.126Z,0
2016-12-07T06:19:08.989Z,0
2016-12-07T06:20:17.851Z,0
2016-12-07T06:21:26.728Z,0
2016-12-07T06:22:35.577Z,0
2016-12-07T06:23:44.452Z,0
2016-12-07T06:24:53.286Z,0
2016-12-07T06:26:02.148Z,4
2016-12-07T06:27:11.003Z,4
2016-12-07T06:28:19.845Z,4
2016-12-07T06:29:28.704Z,0
2016-12-07T06:30:37.546Z,4
2016-12-07T06:31:46.396Z,4
2016-12-07T06:32:55.261Z,4
2016-12-07T06:34:04.133Z,4
2016-12-07T06:35:12.987Z,4
2016-12-07T06:36:21.848Z,0
2016-12-07T06:37:30.688Z,4
2016-12-07T06:38:39.520Z,4
2016-12-07T06:39:48.404Z,8
2016-12-07T06:40:57.254Z,8
2016-12-07T06:42:06.099Z,4
2016-12-07T06:43:14.957Z,8
2016-12-07T06:44:23.809Z,8
2016-12-07T06:45:32.667Z,8
2016-12-07T06:46:41.509Z,12
2016-12-07T06:47:50.356Z,12
2016-12-07T06:48:59.229Z,12
2016-12-07T06:50:08.082Z,20
2016-12-07T06:51:16.931Z,16
2016-12-07T06:52:25.797Z,16
2016-12-07T06:53:34.651Z,20
2016-12-07T06:54:43.489Z,24
2016-12-07T06:55:52.354Z,28
2016-12-07T06:57:01.242Z,32
2016-12-07T06:58:10.092Z,36
2016-12-07T06:59:18.951Z,36
2016-12-07T07:00:27.805Z,40
2016-12-07T07:01:36.681Z,44
2016-12-07T07:02:45.538Z,48
2016-12-07T07:03:54.368Z,52
2016-12-07T07:05:03.242Z,56
2016-12-07T07:06:12.106Z,60
2016-12-07T07:07:20.947Z,64
2016-12-07T07:08:29.798Z,68
2016-12-07T07:09:38.672Z,72
2016-12-07T07:10:47.504Z,76
2016-12-07T07:11:56.361Z,80
2016-12-07T07:13:05.215Z,84
2016-12-07T07:14:14.074Z,108
2016-12-07T07:15:22.928Z,112
2016-12-07T07:16:31.782Z,116
2016-12-07T07:17:40.631Z,120
2016-12-07T07:18:49.513Z,128
2016-12-07T07:19:58.343Z,124
2016-12-07T07:21:07.193Z,128
2016-12-07T07:22:16.050Z,132
2016-12-07T07:23:24.886Z,128
2016-12-07T07:24:33.731Z,128
2016-12-07T07:25:42.600Z,132
2016-12-07T07:26:51.458Z,132
2016-12-07T07:28:00.322Z,136
2016-12-07T07:29:09.176Z,136
2016-12-07T07:30:18.030Z,136
2016-12-07T07:31:26.898Z,144
2016-12-07T07:32:35.746Z,144
2016-12-07T07:33:44.576Z,152
2016-12-07T07:34:53.447Z,160
2016-12-07T07:36:02.326Z,168
2016-12-07T07:37:11.180Z,176
2016-12-07T07:38:20.055Z,184
2016-12-07T07:39:29.238Z,196
2016-12-07T07:40:38.077Z,200
2016-12-07T07:41:46.959Z,212
2016-12-07T07:42:55.821Z,220
2016-12-07T07:44:04.995Z,224
2016-12-07T07:45:13.850Z,236
2016-12-07T07:46:22.720Z,244
2016-12-07T07:47:31.568Z,264
2016-12-07T07:48:40.423Z,280
2016-12-07T07:49:49.291Z,300
2016-12-07T07:50:58.141Z,328
2016-12-07T07:52:06.991Z,356
2016-12-07T07:53:15.853Z,376
2016-12-07T07:54:24.708Z,400
2016-12-07T07:55:33.575Z,416
2016-12-07T07:56:42.442Z,428
2016-12-07T07:57:51.288Z,436
2016-12-07T07:59:00.150Z,452
2016-12-07T08:00:09.009Z,460
2016-12-07T08:01:17.843Z,476
2016-12-07T08:02:26.715Z,492
2016-12-07T08:03:35.562Z,508
2016-12-07T08:04:44.413Z,524
2016-12-07T08:05:53.291Z,536
2016-12-07T08:07:02.157Z,540
2016-12-07T08:08:11.020Z,536
2016-12-07T08:09:19.886Z,544
2016-12-07T08:10:28.753Z,548
2016-12-07T08:11:37.603Z,560
2016-12-07T08:12:46.464Z,568
2016-12-07T08:13:55.315Z,580
2016-12-07T08:15:04.183Z,588
2016-12-07T08:16:13.371Z,604
2016-12-07T08:17:22.210Z,616
2016-12-07T08:18:31.073Z,632
2016-12-07T08:19:39.941Z,660
2016-12-07T08:20:48.789Z,692
2016-12-07T08:21:57.639Z,724
2016-12-07T08:23:06.513Z,752
2016-12-07T08:24:15.356Z,784
2016-12-07T08:25:24.193Z,808
2016-12-07T08:26:33.043Z,820
2016-12-07T08:27:41.899Z,816
2016-12-07T08:28:50.760Z,788
2016-12-07T08:29:59.627Z,764
2016-12-07T08:31:08.485Z,752
2016-12-07T08:32:17.367Z,740
2016-12-07T08:33:26.204Z,740
2016-12-07T08:34:35.058Z,740
2016-12-07T08:35:43.932Z,732
2016-12-07T08:36:52.775Z,720
2016-12-07T10:25:52.469Z,452
2016-12-07T10:27:02.731Z,464
2016-12-07T10:28:13.001Z,476
2016-12-07T10:29:22.636Z,472
2016-12-07T10:30:32.610Z,468
2016-12-07T10:31:43.192Z,476
2016-12-07T10:32:53.461Z,484
2016-12-07T10:34:03.131Z,484
2016-12-07T10:35:12.507Z,484
2016-12-07T10:36:22.828Z,480
2016-12-07T10:37:33.425Z,464
2016-12-07T10:38:43.080Z,468
2016-12-07T10:39:53.055Z,436
2016-12-07T10:41:02.725Z,424
2016-12-07T10:42:12.710Z,424
2016-12-07T10:43:22.760Z,412
2016-12-07T10:44:32.472Z,400
2016-12-07T10:45:42.156Z,400
2016-12-07T10:46:52.159Z,408
2016-12-07T10:48:02.127Z,400
2016-12-07T10:49:12.145Z,404
2016-12-07T10:50:22.455Z,408
2016-12-07T10:51:32.417Z,404
2016-12-07T10:52:42.447Z,400
2016-12-07T10:53:51.853Z,400
2016-12-07T10:55:02.220Z,400
2016-12-07T10:56:12.539Z,404
2016-12-07T10:57:22.533Z,412
2016-12-07T10:58:32.859Z,408
2016-12-07T10:59:43.105Z,400
2016-12-07T11:00:53.381Z,400
2016-12-07T11:02:03.087Z,392
2016-12-07T11:03:13.079Z,384
2016-12-07T11:04:23.388Z,392
2016-12-07T11:05:33.679Z,392
2016-12-07T11:06:44.265Z,388
2016-12-07T11:07:53.929Z,384
2016-12-07T11:09:03.899Z,384
2016-12-07T11:10:14.188Z,384
2016-12-07T11:11:24.447Z,388
2016-12-07T11:12:34.436Z,400
2016-12-07T11:13:44.762Z,412
2016-12-07T11:14:55.062Z,420
2016-12-07T11:16:05.352Z,424
2016-12-07T11:17:15.852Z,432
2016-12-07T11:18:26.707Z,436
2016-12-07T11:19:36.959Z,436
2016-12-07T11:20:47.405Z,436
2016-12-07T11:21:58.141Z,440
2016-12-07T11:23:07.655Z,432
2016-12-07T11:24:17.812Z,424
2016-12-07T11:25:28.447Z,424
2016-12-07T11:26:38.428Z,420
2016-12-07T11:27:47.833Z,408
2016-12-07T11:28:58.108Z,412
2016-12-07T11:30:08.085Z,428
2016-12-07T11:31:17.803Z,424
2016-12-07T11:32:27.785Z,404
2016-12-07T11:33:38.310Z,392
2016-12-07T11:34:48.601Z,388
2016-12-07T11:35:58.569Z,384
2016-12-07T11:37:08.535Z,384
2016-12-07T11:38:17.891Z,392
2016-12-07T11:39:28.185Z,392
2016-12-07T11:40:38.464Z,384
2016-12-07T11:41:48.128Z,380
2016-12-07T11:42:58.406Z,376
2016-12-07T11:44:08.694Z,380
2016-12-07T11:45:18.683Z,372
2016-12-07T11:46:28.678Z,368
2016-12-07T11:47:38.653Z,356
2016-12-07T11:48:48.945Z,352
2016-12-07T11:49:59.242Z,348
2016-12-07T11:51:09.229Z,348
2016-12-07T11:52:19.492Z,352
2016-12-07T11:53:29.790Z,352
2016-12-07T11:54:40.134Z,344
2016-12-07T11:55:49.487Z,344
2016-12-07T11:56:59.759Z,348
2016-12-07T11:58:10.035Z,356
2016-12-07T11:59:20.339Z,372
2016-12-07T12:00:30.320Z,388
2016-12-07T12:01:40.611Z,396
2016-12-07T12:02:50.573Z,388
2016-12-07T12:04:00.227Z,388
2016-12-07T12:05:10.189Z,384
2016-12-07T12:06:20.157Z,376
2016-12-07T12:07:29.833Z,356
2016-12-07T12:08:39.818Z,356
2016-12-07T12:09:50.390Z,344
2016-12-07T12:11:00.666Z,344
2016-12-07T12:12:10.947Z,352
2016-12-07T12:13:20.922Z,356
2016-12-07T12:14:31.309Z,360
2016-12-07T12:15:41.882Z,368
2016-12-07T12:16:51.863Z,376
2016-12-07T12:18:02.169Z,388
2016-12-07T12:19:12.449Z,400
2016-12-07T12:20:22.161Z,400
2016-12-07T12:21:32.141Z,400
2016-12-07T12:22:42.407Z,400
2016-12-07T12:23:52.391Z,396
2016-12-07T12:25:02.657Z,392
2016-12-07T12:26:12.942Z,388
2016-12-07T12:27:22.913Z,376
2016-12-07T12:28:17.137Z,396
2016-12-07T12:29:27.447Z,388
2016-12-07T12:30:36.791Z,384
2016-12-07T12:31:47.082Z,372
2016-12-07T12:32:57.351Z,360
2016-12-07T12:34:07.315Z,360
2016-12-07T12:35:17.286Z,348
2016-12-07T12:36:27.276Z,340
2016-12-07T12:37:37.856Z,328
2016-12-07T12:38:47.810Z,312
2016-12-07T12:39:57.795Z,304
2016-12-07T12:41:07.783Z,292
2016-12-07T12:42:18.067Z,288
2016-12-07T12:43:28.323Z,276
2016-12-07T12:44:38.301Z,256
2016-12-07T12:45:48.583Z,240
2016-12-07T12:46:58.858Z,228
2016-12-07T12:48:09.149Z,216
2016-12-07T12:49:19.408Z,204
2016-12-07T12:50:29.671Z,200
2016-12-07T12:51:39.961Z,196
2016-12-07T12:52:50.233Z,192
2016-12-07T12:54:00.525Z,188
2016-12-07T12:55:11.107Z,180
2016-12-07T12:56:21.386Z,184
2016-12-07T12:57:31.664Z,188
2016-12-07T12:58:41.952Z,184
2016-12-07T12:59:51.938Z,200
2016-12-07T13:01:02.255Z,216
2016-12-07T13:02:12.230Z,224
2016-12-07T13:03:22.526Z,228
2016-12-07T13:04:32.221Z,224
2016-12-07T13:05:42.556Z,228
2016-12-07T13:06:53.171Z,244
2016-12-07T13:08:03.458Z,240
2016-12-07T13:09:13.177Z,248
2016-12-07T13:10:23.155Z,260
2016-12-07T13:11:33.452Z,256
2016-12-07T13:12:43.404Z,248
2016-12-07T13:13:53.388Z,256
2016-12-07T13:15:03.685Z,260
2016-12-07T13:16:13.333Z,244
2016-12-07T13:17:22.697Z,236
2016-12-07T13:18:33.305Z,216
2016-12-07T13:19:43.292Z,192
2016-12-07T13:20:53.268Z,180
2016-12-07T13:22:03.551Z,188
2016-12-07T13:23:13.853Z,192
2016-12-07T13:24:23.810Z,192
2016-12-07T13:25:34.102Z,180
2016-12-07T13:26:44.369Z,168
2016-12-07T13:27:54.008Z,148
2016-12-07T13:29:04.293Z,136
2016-12-07T13:30:14.853Z,124
2016-12-07T13:30:55.333Z,120
2016-12-07T13:32:04.987Z,112
2016-12-07T13:33:15.335Z,108
2016-12-07T13:34:25.652Z,100
2016-12-07T13:35:36.245Z,96
2016-12-07T13:36:46.529Z,92
2016-12-07T13:37:56.513Z,88
2016-12-07T13:39:06.199Z,84
2016-12-07T13:40:16.227Z,80
2016-12-07T13:41:26.810Z,76
2016-12-07T13:42:36.468Z,72
2016-12-07T13:43:45.498Z,76
2016-12-07T13:44:55.779Z,76
2016-12-07T13:46:05.738Z,76
2016-12-07T13:47:16.326Z,76
2016-12-07T13:48:26.602Z,76
2016-12-07T13:49:36.886Z,76
2016-12-07T13:50:47.158Z,72
2016-12-07T13:51:56.829Z,72
2016-12-07T13:53:07.101Z,68
2016-12-07T13:54:17.398Z,64
2016-12-07T13:55:27.682Z,64
2016-12-07T13:56:37.976Z,60
2016-12-07T13:57:47.948Z,60
2016-12-07T13:58:58.242Z,56
2016-12-07T14:00:08.529Z,56
2016-12-07T14:01:18.794Z,52
2016-12-07T14:02:28.784Z,52
2016-12-07T14:03:38.997Z,52
2016-12-07T14:04:49.005Z,52
2016-12-07T14:05:59.282Z,52
2016-12-07T14:07:09.564Z,52
2016-12-07T14:08:19.220Z,56
2016-12-07T14:09:29.535Z,52
2016-12-07T14:10:39.822Z,56
2016-12-07T14:11:50.108Z,64
2016-12-07T14:12:59.461Z,64
2016-12-07T14:14:09.439Z,64
2016-12-07T14:15:18.782Z,64
2016-12-07T14:16:29.071Z,60
2016-12-07T14:17:39.064Z,60
2016-12-07T14:18:48.724Z,52
2016-12-07T14:19:58.994Z,52
2016-12-07T14:21:09.288Z,52
2016-12-07T14:22:19.908Z,48
2016-12-07T14:23:29.562Z,44
2016-12-07T14:24:39.838Z,40
2016-12-07T14:25:50.132Z,40
2016-12-07T14:27:00.113Z,36
2016-12-07T14:28:10.395Z,32
2016-12-07T14:29:20.670Z,28
2016-12-07T14:30:30.656Z,28
2016-12-07T14:31:40.665Z,24
2016-12-07T14:32:50.669Z,24
2016-12-07T14:34:00.953Z,24
2016-12-07T14:35:11.238Z,20
2016-12-07T14:36:21.527Z,20
2016-12-07T14:37:31.821Z,16
2016-12-07T14:38:41.792Z,16
2016-12-07T14:39:51.763Z,16
2016-12-07T14:41:02.045Z,12
2016-12-07T14:42:12.010Z,12
2016-12-07T14:43:21.984Z,12
2016-12-07T14:44:32.258Z,12
2016-12-07T14:45:41.958Z,8
2016-12-07T14:46:51.932Z,12
2016-12-07T14:48:01.916Z,8
2016-12-07T14:49:11.881Z,8
2016-12-07T14:50:21.535Z,8
2016-12-07T14:51:31.522Z,4
2016-12-07T14:52:41.493Z,4
2016-12-07T14:53:51.448Z,4
2016-12-07T14:55:01.733Z,4
2016-12-07T14:56:12.322Z,4
2016-12-07T14:57:22.314Z,4
2016-12-07T14:58:31.966Z,4
2016-12-07T14:59:41.937Z,4
2016-12-07T15:00:51.904Z,4
2016-12-07T15:02:02.466Z,0
2016-12-07T15:03:12.426Z,0
2016-12-07T15:04:22.695Z,0
2016-12-07T15:05:32.672Z,0
2016-12-07T15:06:42.372Z,0
2016-12-07T15:07:52.334Z,0
2016-12-07T15:09:02.615Z,0
2016-12-07T15:10:12.570Z,0
2016-12-07T15:11:22.528Z,0
2016-12-07T15:12:32.793Z,0
2016-12-07T15:13:43.398Z,0
2016-12-07T15:14:53.695Z,0
2016-12-07T15:16:03.677Z,0
2016-12-07T15:17:13.970Z,0
2016-12-07T15:18:23.936Z,0
2016-12-07T15:19:34.212Z,0
2016-12-07T15:20:44.190Z,0
2016-12-07T15:21:54.165Z,0
2016-12-07T15:23:04.143Z,0
2016-12-07T15:24:14.114Z,0
2016-12-07T15:25:24.381Z,0
2016-12-07T15:26:34.054Z,0
2016-12-07T15:27:44.342Z,0
2016-12-07T15:28:54.648Z,0
2016-12-07T15:30:04.637Z,0
2016-12-07T15:31:15.223Z,0
2016-12-07T15:32:25.196Z,0
2016-12-07T15:33:35.151Z,0
2016-12-07T15:34:45.133Z,0
2016-12-07T15:35:55.372Z,0
2016-12-07T15:37:05.334Z,0
2016-12-07T15:38:15.305Z,0
2016-12-07T15:39:25.603Z,0
2016-12-07T15:40:35.885Z,0
2016-12-07T15:41:46.168Z,0
2016-12-07T15:42:56.433Z,0
2016-12-07T15:44:06.409Z,0
2016-12-07T15:45:16.389Z,0
2016-12-07T15:46:26.348Z,0
2016-12-07T15:47:35.710Z,0
2016-12-07T15:48:45.970Z,0
2016-12-07T15:49:55.324Z,0
2016-12-07T15:51:05.609Z,0
2016-12-07T15:52:15.576Z,0
2016-12-07T15:53:25.260Z,0
2016-12-07T15:54:35.212Z,0
2016-12-07T15:55:45.177Z,0
2016-12-07T15:56:55.500Z,0
2016-12-07T15:58:05.766Z,0
2016-12-07T15:59:15.430Z,0
2016-12-07T16:00:26.013Z,0
2016-12-07T16:01:36.324Z,0
2016-12-07T16:02:45.994Z,0
2016-12-07T16:03:56.218Z,0
2016-12-07T16:05:06.195Z,0
2016-12-07T16:06:16.500Z,0
2016-12-07T16:07:26.465Z,0
2016-12-07T16:08:36.137Z,0
2016-12-07T16:09:46.103Z,0
2016-12-07T16:10:56.061Z,0
2016-12-07T16:12:06.330Z,0
2016-12-07T16:13:16.321Z,0
2016-12-07T16:14:26.861Z,0
2016-12-07T16:15:36.554Z,0
2016-12-07T16:16:46.829Z,0
2016-12-07T16:17:57.080Z,0
2016-12-07T16:19:07.379Z,0
2016-12-07T16:20:17.062Z,0
2016-12-07T16:21:27.031Z,0
2016-12-07T16:22:37.313Z,0
2016-12-07T16:23:47.581Z,0
2016-12-07T16:24:57.869Z,0
2016-12-07T16:26:08.142Z,0
2016-12-07T16:27:17.797Z,0
2016-12-07T16:28:28.059Z,0
2016-12-07T16:29:38.338Z,0
2016-12-07T16:30:48.305Z,0
2016-12-07T16:31:57.954Z,0
2016-12-07T16:33:07.931Z,0
2016-12-07T16:34:18.203Z,0
2016-12-07T16:35:28.155Z,0
2016-12-07T16:36:38.415Z,0
2016-12-07T16:37:48.693Z,0
2016-12-07T16:38:58.047Z,0
2016-12-07T16:40:08.332Z,0
2016-12-07T16:41:18.607Z,0
2016-12-07T16:42:28.258Z,0
2016-12-07T16:43:38.541Z,0
2016-12-07T16:44:48.510Z,0
2016-12-07T16:45:58.798Z,0
2016-12-07T16:47:09.376Z,0
2016-12-07T16:48:19.367Z,0
2016-12-07T16:49:29.649Z,0
2016-12-07T16:50:39.614Z,0
2016-12-07T16:51:49.896Z,0
2016-12-07T16:53:00.135Z,0
2016-12-07T16:54:10.098Z,0
2016-12-07T16:55:20.370Z,0
2016-12-07T16:56:30.643Z,0
2016-12-07T16:57:40.608Z,0
2016-12-07T16:58:51.203Z,0
2016-12-07T17:00:01.468Z,0
2016-12-07T17:01:11.750Z,0
2016-12-07T17:02:21.411Z,0
2016-12-07T17:03:30.750Z,0
2016-12-07T17:04:40.707Z,0
2016-12-07T17:05:50.664Z,0
2016-12-07T17:07:00.914Z,0
2016-12-07T17:08:10.863Z,0
2016-12-07T17:09:20.192Z,0
2016-12-07T17:10:30.426Z,0
2016-12-07T17:11:40.407Z,0
2016-12-07T17:12:50.043Z,0
2016-12-07T17:13:59.976Z,0
2016-12-07T17:15:09.613Z,0
2016-12-07T17:16:20.166Z,0
2016-12-07T17:17:30.126Z,0
2016-12-07T17:18:39.752Z,0
2016-12-07T17:19:49.086Z,0
2016-12-07T17:20:58.712Z,0
2016-12-07T17:22:08.940Z,0
2016-12-07T17:23:18.902Z,0
2016-12-07T17:24:28.865Z,0
2016-12-07T17:25:39.153Z,0
2016-12-07T17:26:49.444Z,0
2016-12-07T17:27:59.711Z,0
2016-12-07T17:29:09.394Z,0
2016-12-07T17:30:19.368Z,0
2016-12-07T17:31:29.637Z,0
2016-12-07T17:32:39.898Z,0
2016-12-07T17:33:49.938Z,0
2016-12-07T17:35:00.185Z,0
2016-12-07T17:36:10.165Z,0
2016-12-07T17:37:20.435Z,0
2016-12-07T17:38:30.694Z,0
2016-12-07T17:39:40.951Z,0
2016-12-07T17:40:51.104Z,0
2016-12-07T17:42:00.734Z,0
2016-12-07T17:43:10.688Z,0
2016-12-07T17:44:20.960Z,0
2016-12-07T17:45:31.204Z,0
2016-12-07T17:46:41.466Z,0
2016-12-07T17:47:51.425Z,0
2016-12-07T17:49:01.690Z,0
2016-12-07T17:50:11.966Z,0
2016-12-07T17:51:21.934Z,0
2016-12-07T17:52:32.273Z,0
2016-12-07T17:53:42.549Z,0
2016-12-07T17:54:52.226Z,0
2016-12-07T17:56:02.206Z,0
2016-12-07T17:57:12.801Z,0
2016-12-07T17:58:22.786Z,0
2016-12-07T17:59:32.748Z,0
2016-12-07T18:00:42.724Z,0
2016-12-07T18:01:52.704Z,0
2016-12-07T18:03:03.416Z,0
2016-12-07T18:04:13.689Z,0
2016-12-07T18:05:23.674Z,0
2016-12-07T18:06:33.643Z,0
2016-12-07T18:07:43.950Z,0
2016-12-07T18:08:54.225Z,0
2016-12-07T18:10:04.494Z,0
2016-12-07T18:11:14.920Z,0
2016-12-07T18:12:25.213Z,0
2016-12-07T18:13:35.530Z,0
2016-12-07T18:14:45.520Z,0
2016-12-07T18:15:55.792Z,0
2016-12-07T18:17:05.769Z,0
2016-12-07T18:18:15.735Z,0
2016-12-07T18:19:25.691Z,0
2016-12-07T18:20:35.628Z,0
2016-12-07T18:21:45.907Z,0
2016-12-07T18:22:56.197Z,0
2016-12-07T18:24:06.481Z,0
2016-12-07T18:25:16.776Z,0
2016-12-07T18:26:27.370Z,0
2016-12-07T18:27:37.651Z,0
2016-12-07T18:28:47.621Z,0
2016-12-07T18:29:57.623Z,0